Terminal Aerodrome Forecast
Issued by NWS

Home | Current Version | Previous Version | Text Only | Print | Product List | Glossary On
Versions: 1 2 3 4 5 6 7 8 9 10 11 12 13 14 15 16 17 18 19 20 21 22 23 24 25 26 27 28 29 30
088
FTUS43 KILX 200301 AAC
TAFCMI
TAF AMD
KCMI 200301Z 2003/2024 09004KT 1 1/2SM -SHRA BR OVC003
     FM200900 00000KT 1/2SM FG VCSH OVC003
     FM201800 20007KT 4SM BR OVC008=

USA.gov is the U.S. government's official web portal to all federal, state and local government web resources and services.